Time;durP1;ratioP1;P1;durP2;ratioP2;P2;SDS_P1;SDS_P2;PMS_P1;PMS_P2;Temp;Humidity;BMP_temperature;BMP_pressure;BME280_temperature;BME280_humidity;BME280_pressure;Samples;Min_cycle;Max_cycle;Signal;HPM_P1;HPM_P2
2022/02/19 00:00:15;;;;;;;7.90;1.95;;;6.80;99.90;;;;;;5112143;27;20038;-68
2022/02/19 00:02:41;;;;;;;3.90;1.45;;;6.60;99.90;;;;;;5110205;28;20407;-68
2022/02/19 00:05:07;;;;;;;4.47;1.65;;;6.30;99.90;;;;;;5094081;28;20043;-68
2022/02/19 00:07:33;;;;;;;4.32;1.50;;;6.00;99.90;;;;;;5097117;28;20024;-68
2022/02/19 00:09:59;;;;;;;1.15;0.90;;;5.90;99.90;;;;;;5110583;27;20351;-68
2022/02/19 00:12:25;;;;;;;2.88;0.90;;;5.70;99.90;;;;;;5097906;28;20464;-68
2022/02/19 00:14:52;;;;;;;10.23;1.98;;;5.60;99.90;;;;;;5082380;28;20027;-68
2022/02/19 00:17:21;;;;;;;4.00;1.77;;;5.40;99.90;;;;;;5109457;27;20075;-68
2022/02/19 00:19:48;;;;;;;5.40;1.70;;;5.40;99.90;;;;;;5115340;27;20042;-68
2022/02/19 00:22:14;;;;;;;1.20;1.05;;;5.40;99.90;;;;;;5100575;28;20023;-69
2022/02/19 00:24:39;;;;;;;8.63;1.60;;;5.40;99.90;;;;;;5105510;27;20084;-68
2022/02/19 00:27:05;;;;;;;5.47;1.17;;;5.40;99.90;;;;;;5111072;28;20529;-68
2022/02/19 00:29:31;;;;;;;4.25;1.38;;;5.30;99.90;;;;;;5105379;28;20165;-68
2022/02/19 00:31:56;;;;;;;2.63;1.20;;;5.30;99.90;;;;;;5105168;28;20017;-68
2022/02/19 00:34:22;;;;;;;5.70;1.50;;;5.30;99.90;;;;;;5112258;27;20030;-68
2022/02/19 00:36:48;;;;;;;2.65;0.95;;;5.30;99.90;;;;;;5107439;28;20015;-68
2022/02/19 00:39:13;;;;;;;0.85;0.80;;;5.30;99.90;;;;;;5104876;28;20059;-68
2022/02/19 00:41:39;;;;;;;1.33;0.93;;;5.30;99.90;;;;;;5099146;28;20099;-68
2022/02/19 00:44:08;;;;;;;6.35;1.63;;;5.30;99.90;;;;;;5104222;28;20034;-67
2022/02/19 00:46:34;;;;;;;6.72;1.85;;;5.30;99.90;;;;;;5101220;28;20024;-67
2022/02/19 00:49:02;;;;;;;5.05;1.88;;;5.30;99.90;;;;;;5083920;28;20427;-68
2022/02/19 00:51:29;;;;;;;1.45;1.05;;;5.20;99.90;;;;;;5110899;28;20018;-68
2022/02/19 00:53:56;;;;;;;2.85;0.80;;;5.20;99.90;;;;;;5094187;28;20536;-67
2022/02/19 00:56:21;;;;;;;1.63;1.15;;;5.30;99.90;;;;;;5099744;28;20609;-67
2022/02/19 00:58:47;;;;;;;1.13;1.02;;;5.30;99.90;;;;;;5100712;28;20120;-67
2022/02/19 01:01:13;;;;;;;1.88;1.20;;;5.30;99.90;;;;;;5101561;28;20024;-67
2022/02/19 01:03:38;;;;;;;2.35;1.23;;;5.20;99.90;;;;;;5107430;28;20020;-68
2022/02/19 01:06:04;;;;;;;3.45;1.05;;;5.20;99.90;;;;;;5102167;27;20383;-68
2022/02/19 01:08:30;;;;;;;7.63;1.92;;;5.10;99.90;;;;;;5091527;28;20108;-68
2022/02/19 01:10:55;;;;;;;1.25;1.15;;;5.20;99.90;;;;;;5108913;27;20032;-68
2022/02/19 01:13:21;;;;;;;0.80;0.80;;;5.20;99.90;;;;;;5104398;28;20027;-68
2022/02/19 01:15:46;;;;;;;4.47;1.10;;;5.30;99.90;;;;;;5105366;28;20075;-68
2022/02/19 01:18:12;;;;;;;9.25;1.40;;;5.40;99.90;;;;;;5101169;28;20395;-68
2022/02/19 01:20:41;;;;;;;2.35;1.13;;;5.30;99.90;;;;;;5108831;27;20487;-68
2022/02/19 01:23:07;;;;;;;0.82;0.82;;;5.30;99.90;;;;;;5111493;27;20472;-68
2022/02/19 01:25:33;;;;;;;7.28;1.88;;;5.30;99.90;;;;;;5097971;28;20107;-68
2022/02/19 01:27:59;;;;;;;1.90;0.90;;;5.30;99.90;;;;;;5092246;28;20040;-68
2022/02/19 01:30:24;;;;;;;5.00;1.20;;;5.40;99.90;;;;;;5094827;28;20466;-68
2022/02/19 01:32:50;;;;;;;1.05;0.88;;;5.50;99.90;;;;;;5102587;28;20383;-69
2022/02/19 01:35:15;;;;;;;10.00;2.47;;;5.50;99.90;;;;;;5098103;28;20357;-68
2022/02/19 01:37:41;;;;;;;3.65;1.15;;;5.50;99.90;;;;;;5092217;28;20030;-68
2022/02/19 01:40:07;;;;;;;5.80;1.65;;;5.60;99.90;;;;;;5093455;28;20035;-68
2022/02/19 01:42:33;;;;;;;1.48;1.05;;;5.50;99.90;;;;;;5092252;28;20032;-68
2022/02/19 01:44:59;;;;;;;7.03;2.03;;;5.60;99.90;;;;;;5092702;28;20383;-68
2022/02/19 01:47:24;;;;;;;0.90;0.77;;;5.60;99.90;;;;;;5094154;28;20387;-68
2022/02/19 01:49:50;;;;;;;2.08;1.25;;;5.60;99.90;;;;;;5091900;28;20512;-68
2022/02/19 01:52:18;;;;;;;4.00;1.15;;;5.60;99.90;;;;;;5087165;28;20043;-69
2022/02/19 01:54:45;;;;;;;5.68;1.58;;;5.60;99.90;;;;;;5082998;28;20607;-68
2022/02/19 01:57:11;;;;;;;15.73;11.57;;;5.60;99.90;;;;;;5079050;28;20243;-69
2022/02/19 01:59:39;;;;;;;5.13;1.52;;;5.60;99.90;;;;;;5084301;28;20036;-68
2022/02/19 02:02:06;;;;;;;2.15;1.00;;;5.60;99.90;;;;;;5096598;28;20027;-69
2022/02/19 02:04:33;;;;;;;0.82;0.75;;;5.60;99.90;;;;;;5091967;28;20025;-68
2022/02/19 02:06:59;;;;;;;1.38;0.90;;;5.60;99.90;;;;;;5089146;28;20024;-68
2022/02/19 02:09:25;;;;;;;3.17;1.20;;;5.60;99.90;;;;;;5088863;28;20031;-68
2022/02/19 02:11:53;;;;;;;1.20;0.80;;;5.60;99.90;;;;;;5090516;28;20047;-68
2022/02/19 02:14:19;;;;;;;8.77;1.92;;;5.60;99.90;;;;;;5091580;28;20024;-68
2022/02/19 02:16:45;;;;;;;4.63;1.20;;;5.60;99.90;;;;;;5086554;28;20469;-68
2022/02/19 02:19:11;;;;;;;4.88;1.27;;;5.60;99.90;;;;;;5094820;28;20111;-68
2022/02/19 02:21:40;;;;;;;9.93;2.33;;;5.70;99.90;;;;;;5090121;28;20108;-68
2022/02/19 02:24:06;;;;;;;1.58;0.88;;;5.70;99.90;;;;;;5092743;28;20023;-68
2022/02/19 02:26:33;;;;;;;5.68;1.05;;;5.70;99.90;;;;;;5088948;28;20025;-68
2022/02/19 02:28:58;;;;;;;2.50;1.20;;;5.70;99.90;;;;;;5113027;27;20031;-68
2022/02/19 02:31:25;;;;;;;0.70;0.70;;;5.60;99.90;;;;;;5111913;27;20148;-68
2022/02/19 02:33:52;;;;;;;0.70;0.70;;;5.60;99.90;;;;;;5108028;27;20443;-68
2022/02/19 02:36:18;;;;;;;1.00;0.90;;;5.50;99.90;;;;;;5109330;28;20020;-68
2022/02/19 02:38:45;;;;;;;0.70;0.70;;;5.60;99.90;;;;;;5105768;28;20035;-68
2022/02/19 02:41:11;;;;;;;5.05;1.48;;;5.60;99.90;;;;;;5109760;27;20059;-68
2022/02/19 02:43:37;;;;;;;1.73;0.88;;;5.60;99.90;;;;;;5110105;27;20515;-68
2022/02/19 02:46:03;;;;;;;5.45;1.27;;;5.60;99.90;;;;;;5109287;28;20027;-68
2022/02/19 02:48:29;;;;;;;1.88;0.98;;;5.60;99.90;;;;;;5109077;27;20589;-68
2022/02/19 02:50:55;;;;;;;8.95;2.10;;;5.70;99.90;;;;;;5096006;28;20017;-68
2022/02/19 02:53:21;;;;;;;6.10;1.80;;;5.70;99.90;;;;;;5118104;27;20519;-68
2022/02/19 02:55:47;;;;;;;6.43;1.48;;;5.70;99.90;;;;;;5109479;28;20024;-68
2022/02/19 02:58:12;;;;;;;1.15;0.90;;;5.60;99.90;;;;;;5105827;28;20031;-68
2022/02/19 03:00:38;;;;;;;0.80;0.80;;;5.60;99.90;;;;;;5103965;27;20038;-68
2022/02/19 03:03:03;;;;;;;0.82;0.82;;;5.60;99.90;;;;;;5094672;28;20398;-68
2022/02/19 03:05:29;;;;;;;0.82;0.77;;;5.60;99.90;;;;;;5112868;27;20030;-68
2022/02/19 03:07:55;;;;;;;3.60;1.23;;;5.60;99.90;;;;;;5109991;27;20030;-68
2022/02/19 03:10:20;;;;;;;17.50;1.20;;;5.60;99.90;;;;;;5110076;27;20020;-68
2022/02/19 03:12:46;;;;;;;6.07;1.77;;;5.60;99.90;;;;;;5108429;27;20020;-68
2022/02/19 03:15:18;;;;;;;1.92;1.10;;;5.60;99.90;;;;;;5110629;27;20423;-68
2022/02/19 03:17:48;;;;;;;1.98;1.33;;;5.60;99.90;;;;;;5118818;27;20023;-68
2022/02/19 03:20:22;;;;;;;0.70;0.70;;;5.60;99.90;;;;;;5105705;27;20432;-69
2022/02/19 03:22:49;;;;;;;6.20;1.27;;;5.60;99.90;;;;;;5086924;28;20085;-68
2022/02/19 03:25:16;;;;;;;0.70;0.70;;;5.50;99.90;;;;;;5104389;28;20126;-68
2022/02/19 03:27:42;;;;;;;3.13;1.33;;;5.50;99.90;;;;;;5106149;27;20075;-68
2022/02/19 03:30:10;;;;;;;3.70;1.30;;;5.50;99.90;;;;;;5102716;28;20439;-67
2022/02/19 03:32:36;;;;;;;6.72;1.85;;;5.50;99.90;;;;;;5108308;27;20082;-68
2022/02/19 03:35:03;;;;;;;4.28;1.27;;;5.50;99.90;;;;;;5109781;27;20016;-67
2022/02/19 03:37:32;;;;;;;5.05;1.48;;;5.10;99.90;;;;;;5104255;28;20093;-67
2022/02/19 03:39:58;;;;;;;3.95;1.33;;;4.30;99.90;;;;;;5091389;28;20082;-67
2022/02/19 03:42:23;;;;;;;1.75;1.15;;;4.00;99.90;;;;;;5103562;27;20502;-67
2022/02/19 03:44:49;;;;;;;12.70;1.90;;;3.80;99.90;;;;;;5113802;27;20019;-67
2022/02/19 03:47:14;;;;;;;0.80;0.80;;;3.70;99.90;;;;;;5108474;27;20077;-67
2022/02/19 03:49:40;;;;;;;14.20;1.42;;;3.70;99.90;;;;;;5091302;27;20091;-68
2022/02/19 03:52:06;;;;;;;3.67;1.48;;;3.80;99.90;;;;;;5107365;27;20031;-68
2022/02/19 03:54:31;;;;;;;2.63;1.98;;;3.90;99.90;;;;;;5106811;28;20509;-67
2022/02/19 03:56:57;;;;;;;0.75;0.75;;;4.00;99.90;;;;;;5082255;28;20032;-68
2022/02/19 03:59:23;;;;;;;1.15;1.00;;;4.00;99.90;;;;;;5104750;28;20035;-67
2022/02/19 04:01:48;;;;;;;2.53;1.42;;;4.20;99.90;;;;;;5105342;28;20027;-68
2022/02/19 04:04:14;;;;;;;2.83;1.33;;;4.30;99.90;;;;;;5087331;28;20092;-68
2022/02/19 04:06:39;;;;;;;0.80;0.80;;;4.40;99.90;;;;;;5098777;27;20028;-68
2022/02/19 04:09:05;;;;;;;2.17;1.20;;;4.50;99.90;;;;;;5105030;27;20383;-68
2022/02/19 04:11:31;;;;;;;6.32;1.67;;;4.60;99.90;;;;;;5108539;27;20026;-68
2022/02/19 04:13:56;;;;;;;1.48;0.90;;;4.70;99.90;;;;;;5104422;27;20020;-68
2022/02/19 04:16:22;;;;;;;5.70;1.08;;;4.70;99.90;;;;;;5091331;27;20027;-68
2022/02/19 04:18:47;;;;;;;2.95;1.33;;;4.70;99.90;;;;;;5110127;27;20019;-68
2022/02/19 04:21:13;;;;;;;1.15;0.95;;;4.70;99.90;;;;;;5104653;28;20110;-68
2022/02/19 04:23:39;;;;;;;5.20;1.55;;;4.60;99.90;;;;;;5103709;28;20467;-68
2022/02/19 04:26:05;;;;;;;0.80;0.80;;;4.70;99.90;;;;;;5106355;28;20091;-68
2022/02/19 04:28:30;;;;;;;2.55;1.40;;;4.70;99.90;;;;;;5099722;28;20248;-68
2022/02/19 04:30:56;;;;;;;5.82;1.10;;;4.70;99.90;;;;;;5104658;28;20476;-68
2022/02/19 04:33:22;;;;;;;13.57;1.85;;;4.70;99.90;;;;;;5088573;28;20020;-68
2022/02/19 04:35:47;;;;;;;4.78;1.35;;;4.70;99.90;;;;;;5090180;28;20080;-68
2022/02/19 04:38:15;;;;;;;4.05;1.75;;;4.70;99.90;;;;;;5105064;28;20100;-68
2022/02/19 04:40:42;;;;;;;1.08;0.75;;;4.70;99.90;;;;;;5103308;28;20495;-68
2022/02/19 04:43:08;;;;;;;3.92;1.15;;;4.70;99.90;;;;;;5103412;28;20043;-68
2022/02/19 04:45:34;;;;;;;0.80;0.80;;;4.70;99.90;;;;;;5109170;28;20023;-68
2022/02/19 04:48:00;;;;;;;1.65;0.82;;;4.60;99.90;;;;;;5106388;28;20464;-68
2022/02/19 04:50:26;;;;;;;1.48;1.05;;;4.60;99.90;;;;;;5100071;28;20028;-69
2022/02/19 04:52:51;;;;;;;3.00;1.00;;;4.70;99.90;;;;;;5105111;28;20016;-68
2022/02/19 04:55:17;;;;;;;2.63;1.27;;;4.70;99.90;;;;;;5102493;28;20490;-68
2022/02/19 04:57:43;;;;;;;0.95;0.90;;;4.80;99.90;;;;;;5103333;28;20081;-68
2022/02/19 05:00:19;;;;;;;1.40;1.00;;;4.70;99.90;;;;;;5088973;28;20076;-69
2022/02/19 05:02:45;;;;;;;3.97;1.10;;;4.70;99.90;;;;;;5089890;28;20476;-68
2022/02/19 05:05:11;;;;;;;2.78;1.55;;;4.80;99.90;;;;;;5108247;28;20073;-68
2022/02/19 05:07:37;;;;;;;1.80;0.93;;;4.80;99.90;;;;;;5101434;28;20388;-68
2022/02/19 05:10:06;;;;;;;8.93;1.30;;;4.80;99.90;;;;;;5107894;28;20032;-68
2022/02/19 05:12:32;;;;;;;2.00;1.00;;;4.80;99.90;;;;;;5077215;28;20020;-68
2022/02/19 05:14:58;;;;;;;0.70;0.70;;;4.80;99.90;;;;;;5105506;28;20039;-68
2022/02/19 05:17:24;;;;;;;6.15;1.60;;;4.80;99.90;;;;;;5106491;28;20016;-68
2022/02/19 05:19:50;;;;;;;1.15;0.98;;;4.70;99.90;;;;;;5090469;28;20507;-68
2022/02/19 05:22:16;;;;;;;3.67;1.08;;;4.80;99.90;;;;;;5105972;28;20023;-68
2022/02/19 05:24:41;;;;;;;3.97;1.65;;;4.80;99.90;;;;;;5104209;28;20103;-68
2022/02/19 05:27:07;;;;;;;2.95;1.00;;;4.80;99.90;;;;;;5103760;28;20112;-68
2022/02/19 05:29:33;;;;;;;1.45;1.02;;;4.80;99.90;;;;;;5108408;28;20028;-68
2022/02/19 05:31:58;;;;;;;2.20;1.20;;;4.80;99.90;;;;;;5106819;28;20034;-68
2022/02/19 05:34:24;;;;;;;2.15;1.15;;;4.80;99.90;;;;;;5109183;28;20514;-68
2022/02/19 05:36:50;;;;;;;2.15;0.90;;;4.80;99.90;;;;;;5093301;28;20023;-68
2022/02/19 05:39:15;;;;;;;2.58;1.17;;;4.70;99.90;;;;;;5106439;28;20028;-68
2022/02/19 05:41:41;;;;;;;2.47;1.25;;;4.70;99.90;;;;;;5102369;28;20090;-68
2022/02/19 05:44:07;;;;;;;3.00;1.10;;;4.60;99.90;;;;;;5093356;28;20020;-68
2022/02/19 05:46:33;;;;;;;4.43;1.60;;;4.60;99.90;;;;;;5110090;28;20026;-68
2022/02/19 05:48:59;;;;;;;5.82;1.08;;;4.60;99.90;;;;;;5093987;28;20396;-68
2022/02/19 05:51:25;;;;;;;4.10;1.20;;;4.50;99.90;;;;;;5109841;28;20023;-68
2022/02/19 05:53:50;;;;;;;1.08;0.93;;;4.50;99.90;;;;;;5108573;28;20483;-68
2022/02/19 05:56:16;;;;;;;1.40;0.90;;;4.40;99.90;;;;;;5101998;28;20054;-68
2022/02/19 05:58:43;;;;;;;0.82;0.82;;;4.40;99.90;;;;;;5109232;28;20077;-68
2022/02/19 06:01:09;;;;;;;1.27;1.00;;;4.40;99.90;;;;;;5107880;28;20024;-68
2022/02/19 06:03:35;;;;;;;1.00;0.82;;;4.40;99.90;;;;;;5091757;28;20029;-68
2022/02/19 06:06:01;;;;;;;8.70;1.52;;;4.50;99.90;;;;;;5107742;27;20031;-68
2022/02/19 06:08:26;;;;;;;5.10;1.33;;;4.40;99.90;;;;;;5105599;28;20028;-68
2022/02/19 06:10:52;;;;;;;2.10;1.15;;;4.30;99.90;;;;;;5108141;27;20054;-68
2022/02/19 06:13:17;;;;;;;1.48;0.95;;;4.30;99.90;;;;;;5108425;27;20016;-69
2022/02/19 06:15:43;;;;;;;1.52;1.02;;;4.20;99.90;;;;;;5096282;28;20019;-68
2022/02/19 06:18:09;;;;;;;5.18;1.70;;;4.10;99.90;;;;;;5108900;28;20410;-68
2022/02/19 06:20:34;;;;;;;2.33;1.10;;;4.10;99.90;;;;;;5108159;27;20059;-68
2022/02/19 06:23:00;;;;;;;1.38;1.00;;;4.10;99.90;;;;;;5111767;27;20097;-68
2022/02/19 06:25:26;;;;;;;0.95;0.80;;;4.20;99.90;;;;;;5106321;28;20074;-68
2022/02/19 06:27:52;;;;;;;3.92;1.33;;;4.20;99.90;;;;;;5095266;28;20043;-68
2022/02/19 06:30:17;;;;;;;6.72;1.23;;;4.20;99.90;;;;;;5108061;27;20032;-68
2022/02/19 06:32:43;;;;;;;5.18;1.55;;;4.20;99.90;;;;;;5114336;27;20035;-68
2022/02/19 06:35:10;;;;;;;7.35;1.15;;;4.30;99.90;;;;;;5115920;27;20043;-67
2022/02/19 06:37:43;;;;;;;1.08;0.98;;;4.30;99.90;;;;;;5091404;27;20027;-68
2022/02/19 06:40:12;;;;;;;10.10;1.17;;;4.30;99.90;;;;;;5106914;27;20376;-68
2022/02/19 06:42:38;;;;;;;4.00;1.17;;;4.20;99.90;;;;;;5103262;27;20019;-68
2022/02/19 06:45:04;;;;;;;5.35;1.52;;;4.30;99.90;;;;;;5119223;27;20031;-68
2022/02/19 06:47:31;;;;;;;2.58;1.33;;;4.40;99.90;;;;;;5117628;27;20023;-68
2022/02/19 06:49:57;;;;;;;4.47;1.27;;;4.40;99.90;;;;;;5112766;27;20063;-68
2022/02/19 06:52:22;;;;;;;1.27;0.80;;;4.40;99.90;;;;;;5106201;28;20027;-68
2022/02/19 06:54:48;;;;;;;1.75;1.02;;;4.40;99.90;;;;;;5109165;28;20023;-68
2022/02/19 06:57:15;;;;;;;3.13;1.13;;;4.40;99.90;;;;;;5109126;27;20023;-68
2022/02/19 06:59:42;;;;;;;6.10;1.17;;;4.40;99.90;;;;;;5100086;28;20016;-68
2022/02/19 07:02:07;;;;;;;1.65;0.90;;;4.40;99.90;;;;;;5118628;27;20020;-68
2022/02/19 07:04:33;;;;;;;1.70;0.98;;;4.30;99.90;;;;;;5101787;27;20027;-68
2022/02/19 07:06:59;;;;;;;3.70;1.55;;;4.30;99.90;;;;;;5118123;27;20015;-68
2022/02/19 07:09:25;;;;;;;4.93;1.27;;;4.30;99.90;;;;;;5112247;27;20073;-68
2022/02/19 07:11:50;;;;;;;2.85;1.13;;;4.30;99.90;;;;;;5105608;27;20019;-68
2022/02/19 07:14:16;;;;;;;1.02;0.90;;;4.30;99.90;;;;;;5108699;28;20044;-68
2022/02/19 07:16:42;;;;;;;5.43;1.92;;;4.40;99.90;;;;;;5094717;28;20498;-68
2022/02/19 07:19:08;;;;;;;3.90;1.20;;;4.40;99.90;;;;;;5104831;28;20055;-68
2022/02/19 07:21:33;;;;;;;2.13;1.20;;;4.40;99.90;;;;;;5107334;27;20027;-68
2022/02/19 07:23:59;;;;;;;5.97;1.70;;;4.40;99.90;;;;;;5108253;27;20055;-68
2022/02/19 07:26:25;;;;;;;2.28;0.90;;;4.50;99.90;;;;;;5104892;28;20158;-68
2022/02/19 07:28:51;;;;;;;0.98;0.80;;;4.50;99.90;;;;;;5094958;28;20196;-68
2022/02/19 07:31:17;;;;;;;0.70;0.70;;;4.60;99.90;;;;;;5088412;28;20523;-68
2022/02/19 07:33:43;;;;;;;0.98;0.70;;;4.60;99.90;;;;;;5106608;27;20015;-68
2022/02/19 07:36:08;;;;;;;4.10;0.90;;;4.60;99.90;;;;;;5121621;27;20022;-68
2022/02/19 07:38:34;;;;;;;13.85;2.25;;;4.60;99.90;;;;;;5098465;27;20352;-68
2022/02/19 07:41:01;;;;;;;4.28;1.25;;;4.60;99.90;;;;;;5107208;27;20499;-68
2022/02/19 07:43:27;;;;;;;4.20;1.27;;;4.70;99.90;;;;;;5103551;27;20152;-69
2022/02/19 07:45:52;;;;;;;3.08;1.30;;;4.70;99.90;;;;;;5122168;27;20461;-68
2022/02/19 07:48:18;;;;;;;0.70;0.70;;;4.60;99.90;;;;;;5119610;27;20050;-68
2022/02/19 07:58:56;;;;;;;1.42;0.80;;;4.80;99.90;;;;;;5098466;28;20059;-68
2022/02/19 08:01:22;;;;;;;4.35;1.33;;;4.80;99.90;;;;;;5121989;27;20015;-70
2022/02/19 08:03:48;;;;;;;1.48;0.90;;;4.90;99.90;;;;;;5096261;27;20037;-69
2022/02/19 08:06:13;;;;;;;3.20;1.65;;;5.00;99.90;;;;;;5109502;27;20031;-68
2022/02/19 08:08:39;;;;;;;2.25;1.20;;;4.90;99.90;;;;;;5116172;27;20031;-68
2022/02/19 08:11:05;;;;;;;2.00;1.55;;;5.00;99.90;;;;;;5111487;27;20066;-68
2022/02/19 08:13:31;;;;;;;7.15;1.17;;;5.00;99.90;;;;;;5102582;28;20024;-68
2022/02/19 08:15:57;;;;;;;6.82;1.40;;;5.10;99.90;;;;;;5122828;27;20483;-69
2022/02/19 08:18:23;;;;;;;1.15;1.05;;;5.10;99.90;;;;;;5119770;27;20031;-68
2022/02/19 08:20:51;;;;;;;0.70;0.70;;;5.10;99.90;;;;;;5118488;27;20029;-68
2022/02/19 08:23:18;;;;;;;3.90;1.27;;;5.00;99.90;;;;;;5117340;27;20023;-68
2022/02/19 08:25:46;;;;;;;1.33;0.88;;;4.90;99.90;;;;;;5119802;27;20036;-68
2022/02/19 08:28:11;;;;;;;2.08;0.90;;;5.00;99.90;;;;;;5093795;28;20476;-68
2022/02/19 08:30:40;;;;;;;3.80;0.70;;;5.00;99.90;;;;;;5086101;28;20408;-68
2022/02/19 08:33:07;;;;;;;9.00;1.70;;;5.20;99.90;;;;;;5089890;28;20297;-68
2022/02/19 08:35:33;;;;;;;0.70;0.70;;;5.40;99.90;;;;;;5087369;28;20016;-68
2022/02/19 08:37:59;;;;;;;4.25;1.55;;;5.40;99.90;;;;;;5091571;28;20015;-68
2022/02/19 08:40:25;;;;;;;3.95;1.48;;;5.40;99.90;;;;;;5087364;28;20020;-68
2022/02/19 08:42:51;;;;;;;0.80;0.80;;;5.30;99.90;;;;;;5081104;28;20036;-68
2022/02/19 08:45:17;;;;;;;1.33;1.10;;;5.30;99.90;;;;;;5082129;28;20012;-68
2022/02/19 08:47:44;;;;;;;4.53;1.48;;;5.30;99.90;;;;;;5082379;28;20032;-68
2022/02/19 08:50:14;;;;;;;1.45;1.10;;;5.30;99.90;;;;;;5087292;28;20052;-68
2022/02/19 08:52:44;;;;;;;2.65;1.08;;;5.40;99.90;;;;;;5087115;28;20469;-68
2022/02/19 08:55:11;;;;;;;13.25;1.23;;;5.50;99.90;;;;;;5087335;28;20020;-68
2022/02/19 08:57:37;;;;;;;1.33;1.15;;;5.50;99.90;;;;;;5085136;28;20048;-68
2022/02/19 09:00:08;;;;;;;9.57;1.98;;;5.60;99.90;;;;;;5084463;28;20034;-68
2022/02/19 09:02:34;;;;;;;7.18;1.60;;;5.50;99.90;;;;;;5086361;28;20498;-68
2022/02/19 09:05:00;;;;;;;2.20;1.10;;;5.50;99.90;;;;;;5089511;28;20028;-69
2022/02/19 09:07:26;;;;;;;0.73;0.73;;;5.70;99.90;;;;;;5089113;28;20031;-68
2022/02/19 09:09:52;;;;;;;3.53;1.10;;;5.80;99.90;;;;;;5079626;28;20217;-68
2022/02/19 09:12:18;;;;;;;5.68;1.83;;;5.90;99.90;;;;;;5081795;28;20095;-68
2022/02/19 09:14:43;;;;;;;1.48;1.33;;;6.20;99.90;;;;;;5083014;28;20025;-68
2022/02/19 09:17:09;;;;;;;7.32;2.00;;;6.10;99.90;;;;;;5084740;28;20108;-68
2022/02/19 09:19:35;;;;;;;4.53;1.35;;;6.10;99.90;;;;;;5079811;28;20028;-68
2022/02/19 09:22:01;;;;;;;5.28;1.27;;;6.10;99.90;;;;;;5084450;28;20028;-68
2022/02/19 09:24:28;;;;;;;3.80;0.98;;;6.10;99.90;;;;;;5077212;28;20020;-68
2022/02/19 09:26:54;;;;;;;1.30;0.90;;;6.10;99.90;;;;;;5091797;28;20039;-68
2022/02/19 09:29:19;;;;;;;5.65;1.20;;;6.30;99.90;;;;;;5110025;27;20038;-68
2022/02/19 09:31:45;;;;;;;1.50;1.17;;;6.70;99.90;;;;;;5088665;28;20028;-68
2022/02/19 09:34:10;;;;;;;5.90;1.58;;;7.40;99.90;;;;;;5105691;28;20046;-68
2022/02/19 09:36:37;;;;;;;4.68;1.00;;;8.00;99.90;;;;;;5107391;28;20020;-68
2022/02/19 09:39:04;;;;;;;6.70;1.25;;;7.70;99.90;;;;;;5107081;27;20480;-68
2022/02/19 09:41:30;;;;;;;7.07;1.83;;;7.10;99.90;;;;;;5106383;28;20015;-68
2022/02/19 09:43:56;;;;;;;18.70;1.33;;;7.00;99.90;;;;;;5109548;28;20846;-68
2022/02/19 09:46:24;;;;;;;1.30;1.05;;;7.10;99.90;;;;;;5107670;28;20047;-68
2022/02/19 09:48:51;;;;;;;3.80;1.40;;;7.40;99.90;;;;;;5100463;28;20024;-68
2022/02/19 09:51:17;;;;;;;5.47;1.05;;;7.20;99.90;;;;;;5098070;28;20493;-68
2022/02/19 09:53:43;;;;;;;7.00;1.13;;;7.10;99.90;;;;;;5101019;27;20044;-69
2022/02/19 09:56:09;;;;;;;5.78;1.52;;;8.10;99.90;;;;;;5104034;27;20076;-68
2022/02/19 09:58:35;;;;;;;1.35;1.10;;;7.90;99.90;;;;;;5101387;27;20020;-68
2022/02/19 10:01:23;;;;;;;2.00;1.08;;;7.80;99.90;;;;;;5099249;27;20036;-67
2022/02/19 10:04:01;;;;;;;2.75;0.90;;;7.60;99.90;;;;;;5085319;28;20012;-68
2022/02/19 10:06:29;;;;;;;2.15;0.88;;;7.50;99.90;;;;;;5098232;28;20020;-68
2022/02/19 10:09:38;;;;;;;3.47;1.40;;;7.60;99.90;;;;;;5076814;28;20030;-68
2022/02/19 10:12:12;;;;;;;2.17;0.98;;;8.10;99.90;;;;;;5070589;28;20029;-68
2022/02/19 10:14:39;;;;;;;3.70;1.42;;;7.80;99.90;;;;;;5099547;28;20028;-68
2022/02/19 10:17:11;;;;;;;5.15;1.33;;;7.70;99.90;;;;;;5103914;27;20066;-68
2022/02/19 10:19:51;;;;;;;2.50;1.27;;;8.00;99.90;;;;;;5087117;28;20016;-68
2022/02/19 10:22:18;;;;;;;;;;;8.30;99.90;;;;;;5111619;27;20066;-68
2022/02/19 10:25:05;;;;;;;2.25;1.52;;;8.60;99.90;;;;;;5110655;28;20283;-68
2022/02/19 10:28:00;;;;;;;1.48;0.90;;;8.90;99.90;;;;;;5108074;28;20047;-68
2022/02/19 10:30:27;;;;;;;1.70;0.88;;;9.10;99.90;;;;;;5107279;27;20048;-68
2022/02/19 10:33:03;;;;;;;0.75;0.75;;;8.20;99.90;;;;;;5111638;27;20531;-68
2022/02/19 10:35:41;;;;;;;10.23;1.30;;;7.50;99.90;;;;;;5102445;27;20013;-68
2022/02/19 10:38:11;;;;;;;2.20;1.23;;;7.20;99.90;;;;;;5109545;28;20015;-68
2022/02/19 10:40:46;;;;;;;2.97;1.02;;;7.30;99.90;;;;;;5107465;27;20024;-68
2022/02/19 10:43:20;;;;;;;3.63;1.42;;;7.30;99.90;;;;;;5107212;28;20024;-68
2022/02/19 10:45:58;;;;;;;5.15;1.63;;;7.70;99.90;;;;;;5087207;28;20024;-67
2022/02/19 10:48:30;;;;;;;1.67;1.00;;;7.70;99.90;;;;;;5108613;27;20068;-67
2022/02/19 10:51:16;;;;;;;1.20;0.88;;;7.60;99.90;;;;;;5096111;28;20096;-68
2022/02/19 10:53:45;;;;;;;1.83;1.13;;;8.10;99.90;;;;;;5082486;28;20051;-68
2022/02/19 10:56:14;;;;;;;1.55;0.90;;;8.70;99.90;;;;;;5093118;27;20110;-68
2022/02/19 10:58:57;;;;;;;1.67;1.00;;;9.00;99.90;;;;;;5094825;27;20052;-68
2022/02/19 11:01:23;;;;;;;1.30;0.80;;;10.00;99.90;;;;;;5118810;27;20035;-68
2022/02/19 11:03:49;;;;;;;4.78;1.17;;;9.50;99.90;;;;;;5110066;27;20024;-68
2022/02/19 11:06:15;;;;;;;1.05;0.93;;;9.30;99.90;;;;;;5107996;27;20023;-68
2022/02/19 11:08:45;;;;;;;2.53;1.20;;;9.80;99.90;;;;;;5101506;28;20093;-68
2022/02/19 11:11:11;;;;;;;1.43;0.90;;;10.30;99.90;;;;;;5080344;28;20024;-68
2022/02/19 11:13:39;;;;;;;4.57;1.25;;;11.20;98.80;;;;;;5105439;27;20076;-68
2022/02/19 11:16:05;;;;;;;1.25;1.15;;;11.50;98.20;;;;;;5106678;28;20547;-68
2022/02/19 11:18:35;;;;;;;1.02;0.60;;;11.10;98.10;;;;;;5096576;28;20020;-68
2022/02/19 11:21:05;;;;;;;1.52;0.98;;;11.10;99.00;;;;;;5082368;28;20023;-68
2022/02/19 11:23:33;;;;;;;5.75;1.73;;;11.20;98.60;;;;;;5101226;27;20140;-67
2022/02/19 11:26:00;;;;;;;4.35;1.50;;;10.00;98.20;;;;;;5101943;27;20095;-67
2022/02/19 11:28:33;;;;;;;1.70;1.00;;;9.40;99.40;;;;;;5102913;28;20040;-67
2022/02/19 11:31:00;;;;;;;3.13;1.25;;;9.40;99.90;;;;;;5106884;27;20519;-67
2022/02/19 11:33:29;;;;;;;5.28;1.48;;;8.50;99.90;;;;;;5085632;28;20060;-67
2022/02/19 11:35:59;;;;;;;3.60;1.27;;;8.50;99.90;;;;;;5108020;27;20086;-68
2022/02/19 11:38:35;;;;;;;;;;;8.40;99.90;;;;;;5109385;27;20403;-67
2022/02/19 11:41:03;;;;;;;5.57;0.90;;;8.20;99.90;;;;;;5112595;27;19908;-67
2022/02/19 11:43:44;;;;;;;2.63;1.33;;;8.20;99.90;;;;;;5087167;28;20027;-67
2022/02/19 11:46:30;;;;;;;0.77;0.70;;;8.00;99.90;;;;;;5095072;27;20042;-67
2022/02/19 11:48:56;;;;;;;1.25;1.00;;;8.00;99.90;;;;;;5098951;27;20410;-67
2022/02/19 11:51:24;;;;;;;1.33;1.10;;;7.80;99.90;;;;;;5107201;27;20012;-67
2022/02/19 11:54:02;;;;;;;0.80;0.80;;;7.90;99.90;;;;;;5112700;27;20023;-67
2022/02/19 11:56:36;;;;;;;6.60;1.30;;;7.90;99.90;;;;;;5110639;27;20016;-67
2022/02/19 11:59:05;;;;;;;1.48;0.90;;;8.00;99.90;;;;;;5112821;27;20036;-67
2022/02/19 12:01:32;;;;;;;6.07;1.83;;;7.70;99.90;;;;;;5110391;27;20012;-67
2022/02/19 12:04:15;;;;;;;2.45;1.13;;;7.70;99.90;;;;;;5113222;27;20039;-67
2022/02/19 12:06:45;;;;;;;0.85;0.75;;;7.60;99.90;;;;;;5105454;27;20030;-67
2022/02/19 12:09:12;;;;;;;2.05;1.35;;;7.80;99.90;;;;;;5103222;27;20593;-67
2022/02/19 12:11:57;;;;;;;1.80;0.90;;;8.00;99.90;;;;;;5112106;27;20037;-68
2022/02/19 12:15:01;;;;;;;4.82;1.88;;;8.00;99.90;;;;;;5107545;27;20440;-67
2022/02/19 12:17:44;;;;;;;1.25;1.02;;;7.70;99.90;;;;;;5103371;27;20031;-67
2022/02/19 12:20:23;;;;;;;1.60;1.25;;;7.90;99.90;;;;;;5097520;27;20035;-67
2022/02/19 12:23:01;;;;;;;1.80;0.93;;;7.80;99.90;;;;;;5108026;27;20020;-67
2022/02/19 12:25:47;;;;;;;3.42;0.98;;;7.50;99.90;;;;;;5109547;27;20055;-68
2022/02/19 12:28:18;;;;;;;1.77;1.10;;;7.40;99.90;;;;;;5114537;27;20073;-67
2022/02/19 12:31:07;;;;;;;1.27;0.80;;;7.60;99.90;;;;;;5109823;27;20574;-67
2022/02/19 12:33:33;;;;;;;1.38;0.95;;;7.60;99.90;;;;;;5110332;27;20032;-67
2022/02/19 12:36:06;;;;;;;6.65;1.20;;;7.60;99.90;;;;;;5115443;27;20110;-67
2022/02/19 12:38:32;;;;;;;0.95;0.73;;;7.40;99.90;;;;;;5112286;27;20023;-67
2022/02/19 12:40:58;;;;;;;0.88;0.80;;;7.40;99.90;;;;;;5109685;27;20026;-67
2022/02/19 12:43:24;;;;;;;1.42;0.90;;;7.60;99.90;;;;;;5107921;27;20076;-67
2022/02/19 12:45:50;;;;;;;4.20;1.45;;;7.90;99.90;;;;;;5106342;27;20072;-67
2022/02/19 12:48:16;;;;;;;3.70;0.90;;;8.50;99.90;;;;;;5104549;28;20020;-67
2022/02/19 12:50:52;;;;;;;0.95;0.88;;;8.80;99.90;;;;;;5104237;28;20038;-69
2022/02/19 12:53:23;;;;;;;0.93;0.70;;;8.50;99.90;;;;;;5104847;28;20099;-68
2022/02/19 12:55:58;;;;;;;5.20;0.80;;;8.50;99.90;;;;;;5100475;28;20887;-67
2022/02/19 12:58:25;;;;;;;1.05;0.70;;;9.60;99.90;;;;;;5105436;28;20028;-68
2022/02/19 13:00:53;;;;;;;2.63;1.30;;;9.50;99.30;;;;;;5089632;28;20128;-67
2022/02/19 13:03:18;;;;;;;4.00;1.42;;;9.60;99.10;;;;;;5088508;28;20023;-68
2022/02/19 13:06:11;;;;;;;4.15;1.27;;;10.20;98.90;;;;;;5094260;28;20036;-68
2022/02/19 13:08:37;;;;;;;2.20;1.10;;;10.30;98.30;;;;;;5100914;28;20050;-68